createdAt,value
2018-06-04T00:01:11.940Z,38.87
2018-06-04T00:03:40.406Z,41.10
2018-06-04T00:06:08.465Z,40.13
2018-06-04T00:08:36.441Z,41.57
2018-06-04T00:11:04.524Z,45.13
2018-06-04T00:13:33.200Z,41.93
2018-06-04T00:16:01.388Z,41.73
2018-06-04T00:18:29.481Z,43.43
2018-06-04T00:20:57.374Z,43.20
2018-06-04T00:23:25.360Z,40.80
2018-06-04T00:25:53.321Z,43.87
2018-06-04T00:28:21.330Z,41.30
2018-06-04T00:30:49.816Z,41.07
2018-06-04T00:33:18.647Z,40.00
2018-06-04T00:35:47.444Z,37.23
2018-06-04T00:38:15.432Z,46.43
2018-06-04T00:40:44.634Z,42.53
2018-06-04T00:43:12.901Z,39.57
2018-06-04T00:45:40.870Z,39.33
2018-06-04T00:48:09.002Z,39.60
2018-06-04T00:50:37.168Z,40.47
2018-06-04T00:53:05.224Z,41.67
2018-06-04T00:55:38.092Z,44.33
2018-06-04T00:58:06.152Z,40.40
2018-06-04T01:00:34.168Z,41.27
2018-06-04T01:03:02.202Z,40.53
2018-06-04T01:05:30.204Z,43.13
2018-06-04T01:07:58.216Z,40.30
2018-06-04T01:10:26.633Z,42.27
2018-06-04T01:12:54.593Z,45.93
2018-06-04T01:15:22.664Z,44.30
2018-06-04T01:17:50.644Z,40.93
2018-06-04T01:20:18.637Z,48.87
2018-06-04T01:22:46.689Z,46.57
2018-06-04T01:25:14.712Z,51.97
2018-06-04T01:27:42.644Z,48.73
2018-06-04T01:30:10.572Z,44.57
2018-06-04T01:32:38.544Z,53.23
2018-06-04T01:35:07.672Z,50.03
2018-06-04T01:37:35.548Z,45.70
2018-06-04T01:40:03.484Z,49.47
2018-06-04T01:42:31.557Z,51.10
2018-06-04T01:44:59.582Z,44.80
2018-06-04T01:47:27.617Z,46.90
2018-06-04T01:49:55.932Z,44.53
2018-06-04T01:52:24.740Z,44.17
2018-06-04T01:54:52.833Z,49.37
2018-06-04T01:57:20.868Z,47.00
2018-06-04T01:59:49.977Z,46.00
2018-06-04T02:02:17.920Z,51.53
2018-06-04T02:04:45.934Z,51.37
2018-06-04T02:07:13.955Z,49.20
2018-06-04T02:09:42.200Z,47.10
2018-06-04T02:12:10.233Z,46.87
2018-06-04T02:14:38.356Z,48.57
2018-06-04T02:17:07.941Z,53.20
2018-06-04T02:19:36.611Z,48.87
2018-06-04T02:22:04.600Z,41.57
2018-06-04T02:24:32.569Z,46.67
2018-06-04T02:27:01.277Z,50.83
2018-06-04T02:29:30.219Z,48.77
2018-06-04T02:31:58.277Z,46.97
2018-06-04T02:34:27.072Z,46.50
2018-06-04T02:36:54.973Z,45.67
2018-06-04T02:39:22.999Z,50.30
2018-06-04T02:41:51.386Z,47.80
2018-06-04T02:44:19.353Z,45.07
2018-06-04T02:46:47.407Z,44.50
2018-06-04T02:49:15.297Z,47.20
2018-06-04T02:51:43.265Z,43.20
2018-06-04T02:54:11.302Z,43.03
2018-06-04T02:56:39.387Z,46.97
2018-06-04T02:59:07.427Z,45.47
2018-06-04T03:01:35.389Z,41.63
2018-06-04T03:04:04.007Z,42.63
2018-06-04T03:06:32.038Z,41.33
2018-06-04T03:09:00.160Z,44.23
2018-06-04T03:11:28.143Z,44.00
2018-06-04T03:13:57.176Z,44.90
2018-06-04T03:16:25.169Z,40.20
2018-06-04T03:18:53.347Z,38.23
2018-06-04T03:21:21.313Z,38.67
2018-06-04T03:23:49.321Z,38.97
2018-06-04T03:26:17.221Z,38.10
2018-06-04T03:28:45.657Z,39.87
2018-06-04T03:31:13.714Z,38.63
2018-06-04T03:33:41.692Z,40.77
2018-06-04T03:36:09.638Z,38.67
2018-06-04T03:38:37.622Z,38.80
2018-06-04T03:41:05.604Z,32.97
2018-06-04T03:43:33.640Z,34.00
2018-06-04T03:46:01.669Z,30.57
2018-06-04T03:48:29.688Z,33.10
2018-06-04T03:50:57.695Z,29.00
2018-06-04T03:53:25.640Z,27.93
2018-06-04T03:55:53.947Z,26.20
2018-06-04T03:58:22.571Z,25.80
2018-06-04T04:00:51.192Z,27.97
2018-06-04T04:03:19.573Z,26.10
2018-06-04T04:05:48.350Z,25.07
2018-06-04T04:08:16.230Z,24.23
2018-06-04T04:10:44.248Z,28.97
2018-06-04T04:13:12.192Z,26.30
2018-06-04T04:15:40.074Z,26.70
2018-06-04T04:18:08.163Z,24.87
2018-06-04T04:20:36.042Z,26.07
2018-06-04T04:23:04.166Z,23.83
2018-06-04T04:25:32.153Z,23.05
2018-06-04T04:28:00.375Z,27.13
2018-06-04T04:30:28.431Z,25.88
2018-06-04T04:32:57.118Z,22.93
2018-06-04T04:35:26.066Z,22.67
2018-06-04T04:37:54.126Z,22.45
2018-06-04T04:40:22.104Z,23.55
2018-06-04T04:42:50.182Z,23.02
2018-06-04T04:45:18.921Z,21.90
2018-06-04T04:47:46.956Z,22.30
2018-06-04T04:50:14.992Z,21.82
2018-06-04T04:52:43.052Z,24.95
2018-06-04T04:55:11.824Z,27.27
2018-06-04T04:57:39.777Z,21.85
2018-06-04T05:00:09.740Z,21.02
2018-06-04T05:02:37.853Z,21.17
2018-06-04T05:05:06.844Z,21.80
2018-06-04T05:07:34.800Z,22.60
2018-06-04T05:10:03.011Z,24.65
2018-06-04T05:12:30.983Z,22.58
2018-06-04T05:14:59.053Z,22.80
2018-06-04T05:17:27.169Z,24.10
2018-06-04T05:19:55.169Z,23.42
2018-06-04T05:22:23.853Z,24.60
2018-06-04T05:24:51.864Z,25.30
2018-06-04T05:27:20.483Z,24.77
2018-06-04T05:29:49.017Z,24.35
2018-06-04T05:32:17.943Z,25.20
2018-06-04T05:34:46.079Z,23.35
2018-06-04T05:37:14.260Z,23.73
2018-06-04T05:39:43.349Z,23.95
2018-06-04T05:42:23.784Z,24.63
2018-06-04T05:44:51.971Z,22.93
2018-06-04T05:47:19.893Z,23.95
2018-06-04T05:49:48.902Z,22.15
2018-06-04T05:52:19.088Z,22.98
2018-06-04T05:54:58.835Z,23.22
2018-06-04T05:57:27.225Z,23.52
2018-06-04T05:59:55.581Z,23.42
2018-06-04T06:02:23.639Z,22.80
2018-06-04T06:04:52.140Z,22.37
2018-06-04T06:07:20.924Z,21.17
2018-06-04T06:09:49.095Z,27.37
2018-06-04T06:15:59.216Z,23.47
2018-06-04T06:18:27.440Z,21.60
2018-06-04T06:20:55.558Z,22.40
2018-06-04T06:23:24.228Z,21.37
2018-06-04T06:25:52.487Z,22.55
2018-06-04T06:28:21.562Z,22.70
2018-06-04T06:30:50.056Z,21.52
2018-06-04T06:33:18.144Z,22.22
2018-06-04T06:48:46.869Z,21.55
2018-06-04T06:51:15.048Z,18.75
2018-06-04T06:53:43.128Z,23.05
2018-06-04T06:56:11.975Z,26.12
2018-06-04T06:58:40.028Z,23.18
2018-06-04T07:01:08.733Z,19.67
2018-06-04T07:03:38.985Z,21.27
2018-06-04T07:06:08.596Z,21.48
2018-06-04T07:08:37.156Z,20.55
2018-06-04T07:24:05.485Z,20.92
2018-06-04T07:26:33.441Z,22.75
2018-06-04T07:29:04.284Z,20.27
2018-06-04T07:31:32.730Z,20.05
2018-06-04T07:34:01.297Z,18.50
2018-06-04T07:36:29.277Z,17.23
2018-06-04T07:38:57.401Z,18.73
2018-06-04T07:41:26.042Z,19.80
2018-06-04T07:43:54.228Z,18.00
2018-06-04T07:46:23.669Z,21.05
2018-06-04T07:48:52.341Z,17.98
2018-06-04T07:51:21.066Z,15.53
2018-06-04T08:06:49.832Z,20.10
2018-06-04T08:09:18.944Z,16.45
2018-06-04T08:11:49.450Z,16.45
2018-06-04T08:14:17.904Z,14.95
2018-06-04T08:16:46.032Z,16.52
2018-06-04T08:19:14.711Z,14.90
2018-06-04T08:21:44.694Z,14.07
2018-06-04T08:24:13.345Z,13.95
2018-06-04T08:39:42.352Z,12.60
2018-06-04T08:42:10.772Z,12.47
2018-06-04T08:44:38.784Z,12.18
2018-06-04T08:47:08.395Z,14.40
2018-06-04T08:49:36.531Z,17.73
2018-06-04T08:52:06.285Z,13.80
2018-06-04T08:54:35.235Z,12.28
2018-06-04T08:57:21.273Z,13.45
2018-06-04T08:59:50.063Z,17.67
2018-06-04T09:02:18.209Z,11.45
2018-06-04T09:04:46.478Z,12.10
2018-06-04T09:07:15.713Z,13.50
2018-06-04T09:09:48.138Z,12.68
2018-06-04T09:12:19.232Z,12.58
2018-06-04T09:14:48.193Z,11.68
2018-06-04T09:17:19.802Z,12.18
2018-06-04T09:19:52.268Z,13.32
2018-06-04T09:22:21.528Z,11.85
2018-06-04T09:24:51.013Z,14.35
2018-06-04T09:27:19.726Z,11.97
2018-06-04T09:29:48.221Z,11.78
2018-06-04T09:32:19.541Z,11.80
2018-06-04T09:34:47.941Z,11.40
2018-06-04T09:37:16.472Z,11.80
2018-06-04T09:39:44.505Z,11.33
2018-06-04T09:42:12.608Z,12.88
2018-06-04T09:44:41.577Z,11.30
2018-06-04T10:00:11.562Z,13.75
2018-06-04T10:02:40.508Z,10.28
2018-06-04T10:05:08.947Z,11.63
2018-06-04T10:07:37.712Z,10.58
2018-06-04T10:10:05.871Z,10.85
2018-06-04T10:12:35.413Z,11.48
2018-06-04T10:15:03.949Z,10.38
2018-06-04T10:33:50.515Z,9.63
2018-06-04T10:36:22.435Z,9.40
2018-06-04T10:39:02.539Z,8.65
2018-06-04T10:41:31.501Z,9.28
2018-06-04T10:43:59.674Z,8.65
2018-06-04T10:46:28.495Z,9.20
2018-06-04T10:48:57.433Z,10.38
2018-06-04T10:51:26.407Z,8.75
2018-06-04T10:53:55.442Z,9.20
2018-06-04T10:56:27.422Z,9.00
2018-06-04T10:58:56.425Z,8.80
2018-06-04T11:01:24.628Z,11.33
2018-06-04T11:03:55.287Z,12.58
2018-06-04T11:06:23.452Z,8.38
2018-06-04T11:08:52.756Z,9.10
2018-06-04T11:11:20.755Z,8.60
2018-06-04T11:13:49.088Z,8.60
2018-06-04T11:16:18.441Z,9.20
2018-06-04T11:18:48.109Z,8.35
2018-06-04T11:21:16.972Z,10.25
2018-06-04T11:23:45.807Z,8.10
2018-06-04T11:26:14.450Z,13.03
2018-06-04T11:28:44.882Z,12.85
2018-06-04T11:32:43.916Z,8.05
2018-06-04T11:35:14.076Z,10.08
2018-06-04T11:37:46.006Z,8.78
2018-06-04T11:40:15.254Z,11.08
2018-06-04T11:42:44.478Z,9.03
2018-06-04T11:45:12.616Z,8.38
2018-06-04T11:47:42.077Z,8.85
2018-06-04T11:50:11.031Z,8.08
2018-06-04T11:52:39.913Z,8.80
2018-06-04T11:55:08.855Z,11.15
2018-06-04T11:57:37.345Z,7.72
2018-06-04T12:00:06.167Z,9.78
2018-06-04T12:02:35.651Z,8.23
2018-06-04T12:05:03.923Z,7.70
2018-06-04T12:20:33.368Z,8.93
2018-06-04T12:23:03.950Z,8.78
2018-06-04T12:25:34.143Z,8.50
2018-06-04T12:28:04.224Z,9.83
2018-06-04T12:30:32.565Z,10.32
2018-06-04T12:33:01.066Z,8.83
2018-06-04T12:35:29.052Z,8.10
2018-06-04T12:37:58.999Z,7.60
2018-06-04T12:40:27.286Z,11.43
2018-06-04T12:42:57.099Z,9.73
2018-06-04T12:45:25.013Z,8.90
2018-06-04T12:47:54.125Z,8.35
2018-06-04T12:50:22.328Z,8.78
2018-06-04T12:52:50.955Z,9.40
2018-06-04T12:55:20.878Z,10.45
2018-06-04T12:57:49.672Z,8.73
2018-06-04T13:00:18.699Z,8.25
2018-06-04T13:02:47.490Z,9.28
2018-06-04T13:05:16.641Z,10.63
2018-06-04T13:07:44.668Z,10.58
2018-06-04T13:10:12.727Z,8.13
2018-06-04T13:12:41.699Z,9.20
2018-06-04T13:15:10.088Z,8.20
2018-06-04T13:17:38.574Z,10.98
2018-06-04T13:20:07.046Z,7.95
2018-06-04T13:22:34.972Z,10.15
2018-06-04T13:34:54.531Z,9.83
2018-06-04T13:37:23.040Z,8.23
2018-06-04T13:39:51.631Z,9.18
2018-06-04T13:42:20.311Z,7.37
2018-06-04T13:44:48.756Z,8.05
2018-06-04T13:47:17.389Z,7.92
2018-06-04T13:49:46.709Z,8.23
2018-06-04T13:52:14.664Z,9.58
2018-06-04T13:54:42.756Z,8.30
2018-06-04T13:57:11.416Z,11.53
2018-06-04T13:59:40.302Z,12.70
2018-06-04T14:02:08.485Z,9.78
2018-06-04T14:04:37.088Z,8.88
2018-06-04T14:07:05.750Z,8.80
2018-06-04T14:09:33.585Z,8.70
2018-06-04T14:12:02.109Z,8.05
2018-06-04T14:14:30.172Z,10.03
2018-06-04T14:16:58.081Z,7.78
2018-06-04T14:19:26.012Z,8.05
2018-06-04T14:21:53.900Z,7.87
2018-06-04T14:24:21.748Z,11.05
2018-06-04T14:26:49.611Z,10.05
2018-06-04T14:29:17.455Z,8.48
2018-06-04T14:31:45.168Z,7.62
2018-06-04T14:34:13.040Z,7.53
2018-06-04T14:36:40.980Z,6.92
2018-06-04T14:39:09.744Z,7.90
2018-06-04T14:41:37.801Z,7.60
2018-06-04T14:44:05.564Z,8.20
2018-06-04T14:46:33.429Z,8.58
2018-06-04T14:49:01.199Z,8.45
2018-06-04T14:51:29.064Z,7.90
2018-06-04T14:53:56.952Z,10.18
2018-06-04T14:56:24.975Z,9.83
2018-06-04T14:58:52.908Z,10.18
2018-06-04T15:01:20.763Z,7.83
2018-06-04T15:03:48.767Z,8.85
2018-06-04T15:06:16.686Z,8.38
2018-06-04T15:08:44.597Z,9.63
2018-06-04T15:11:13.677Z,7.83
2018-06-04T15:13:41.741Z,7.22
2018-06-04T15:16:10.272Z,7.70
2018-06-04T15:18:38.194Z,9.88
2018-06-04T15:21:06.600Z,11.63
2018-06-04T15:23:34.417Z,8.90
2018-06-04T15:26:02.920Z,8.03
2018-06-04T15:28:30.783Z,10.58
2018-06-04T15:30:58.643Z,17.40
2018-06-04T15:33:26.504Z,8.53
2018-06-04T15:35:54.452Z,8.38
2018-06-04T15:38:22.561Z,8.33
2018-06-04T15:40:51.180Z,6.78
2018-06-04T15:43:23.919Z,7.35
2018-06-04T15:45:51.801Z,7.10
2018-06-04T15:48:19.612Z,8.40
2018-06-04T15:50:48.184Z,6.97
2018-06-04T15:53:17.016Z,9.28
2018-06-04T15:55:44.892Z,8.85
2018-06-04T15:58:12.856Z,7.92
2018-06-04T16:00:40.692Z,7.47
2018-06-04T16:03:08.670Z,7.92
2018-06-04T16:05:36.460Z,9.03
2018-06-04T16:08:04.328Z,7.47
2018-06-04T16:10:32.256Z,11.22
2018-06-04T16:13:00.072Z,8.03
2018-06-04T16:15:27.939Z,7.22
2018-06-04T16:17:55.824Z,13.60
2018-06-04T16:20:23.740Z,7.60
2018-06-04T16:22:51.594Z,8.95
2018-06-04T16:25:19.507Z,11.33
2018-06-04T16:27:48.296Z,7.30
2018-06-04T16:30:16.940Z,9.70
2018-06-04T16:32:45.085Z,6.72
2018-06-04T16:35:12.942Z,8.03
2018-06-04T16:37:40.829Z,6.72
2018-06-04T16:40:08.706Z,8.80
2018-06-04T16:42:36.545Z,7.42
2018-06-04T16:45:04.531Z,7.25
2018-06-04T16:47:32.403Z,8.03
2018-06-04T16:50:00.180Z,11.05
2018-06-04T16:52:28.020Z,7.05
2018-06-04T16:54:55.928Z,11.70
2018-06-04T16:57:23.868Z,7.92
2018-06-04T16:59:51.824Z,12.70
2018-06-04T17:02:19.640Z,8.10
2018-06-04T17:04:47.466Z,8.55
2018-06-04T17:07:15.216Z,12.00
2018-06-04T17:09:43.092Z,9.03
2018-06-04T17:12:10.992Z,9.25
2018-06-04T17:14:38.924Z,8.05
2018-06-04T17:17:06.815Z,9.45
2018-06-04T17:19:34.716Z,16.00
2018-06-04T17:22:02.509Z,9.98
2018-06-04T17:24:30.352Z,10.48
2018-06-04T17:26:58.169Z,9.30
2018-06-04T17:29:26.144Z,9.95
2018-06-04T17:31:54.004Z,11.03
2018-06-04T17:34:22.057Z,9.63
2018-06-04T17:36:49.944Z,9.28
2018-06-04T17:39:17.806Z,11.80
2018-06-04T17:41:45.816Z,9.88
2018-06-04T17:44:13.700Z,10.15
2018-06-04T17:46:41.540Z,11.60
2018-06-04T17:49:09.444Z,9.73
2018-06-04T17:51:37.788Z,12.95
2018-06-04T17:54:05.744Z,12.73
2018-06-04T17:56:33.619Z,13.35
2018-06-04T17:59:01.556Z,10.13
2018-06-04T18:01:30.089Z,15.03
2018-06-04T18:03:57.976Z,10.23
2018-06-04T18:06:25.836Z,9.83
2018-06-04T18:08:53.690Z,12.05
2018-06-04T18:11:21.524Z,11.73
2018-06-04T18:13:49.425Z,10.60
2018-06-04T18:16:17.369Z,11.45
2018-06-04T18:18:45.277Z,11.45
2018-06-04T18:21:13.140Z,12.10
2018-06-04T18:23:40.969Z,11.78
2018-06-04T18:26:09.732Z,15.15
2018-06-04T18:28:38.220Z,11.48
2018-06-04T18:31:06.989Z,12.23
2018-06-04T18:33:34.929Z,14.18
2018-06-04T18:36:02.757Z,12.25
2018-06-04T18:38:30.655Z,11.80
2018-06-04T18:40:58.565Z,16.57
2018-06-04T18:43:26.855Z,11.38
2018-06-04T18:45:54.774Z,12.47
2018-06-04T18:48:22.749Z,15.40
2018-06-04T18:50:50.612Z,11.90
2018-06-04T18:53:18.713Z,16.95
2018-06-04T18:55:46.579Z,11.33
2018-06-04T18:58:14.420Z,13.62
2018-06-04T19:00:42.711Z,13.83
2018-06-04T19:03:10.646Z,12.07
2018-06-04T19:05:39.214Z,11.88
2018-06-04T19:08:09.556Z,15.68
2018-06-04T19:10:39.097Z,15.28
2018-06-04T19:13:10.826Z,12.63
2018-06-04T19:15:39.231Z,17.73
2018-06-04T19:18:08.324Z,17.52
2018-06-04T19:20:36.165Z,11.48
2018-06-04T19:23:05.053Z,11.27
2018-06-04T19:25:32.938Z,10.58
2018-06-04T19:28:01.888Z,12.10
2018-06-04T19:30:31.934Z,15.50
2018-06-04T19:33:00.050Z,14.33
2018-06-04T19:35:29.089Z,11.53
2018-06-04T19:37:59.038Z,12.00
2018-06-04T19:40:27.440Z,12.77
2018-06-04T19:42:55.288Z,13.07
2018-06-04T19:45:23.260Z,12.47
2018-06-04T19:47:52.519Z,10.10
2018-06-04T19:50:20.451Z,14.97
2018-06-04T19:52:48.409Z,11.53
2018-06-04T19:55:16.280Z,11.40
2018-06-04T20:10:44.816Z,14.97
2018-06-04T20:13:13.418Z,11.73
2018-06-04T20:15:44.437Z,11.77
2018-06-04T20:18:13.565Z,13.03
2018-06-04T20:20:41.629Z,11.97
2018-06-04T20:23:09.700Z,14.53
2018-06-04T20:25:39.563Z,13.20
2018-06-04T20:28:07.545Z,12.53
2018-06-04T20:30:36.101Z,12.13
2018-06-04T20:33:04.652Z,12.60
2018-06-04T20:35:34.120Z,20.37
2018-06-04T20:51:07.204Z,12.83
2018-06-04T20:53:35.068Z,13.60
2018-06-04T20:56:03.441Z,12.30
2018-06-04T20:58:31.565Z,13.67
2018-06-04T21:00:59.459Z,15.70
2018-06-04T21:03:29.955Z,13.90
2018-06-04T21:06:10.137Z,14.90
2018-06-04T21:08:39.570Z,15.97
2018-06-04T21:11:15.268Z,11.17
2018-06-04T21:13:44.929Z,13.43
2018-06-04T21:16:13.163Z,13.13
2018-06-04T21:18:40.876Z,11.63
2018-06-04T21:21:09.544Z,13.77
2018-06-04T21:23:37.428Z,13.00
2018-06-04T21:26:05.175Z,12.60
2018-06-04T21:28:32.959Z,12.50
2018-06-04T21:31:00.780Z,12.93
2018-06-04T21:33:29.422Z,15.17
2018-06-04T21:35:57.240Z,14.30
2018-06-04T21:38:25.456Z,15.87
2018-06-04T21:40:54.054Z,17.37
2018-06-04T21:43:21.712Z,20.87
2018-06-04T21:45:49.670Z,16.40
2018-06-04T21:48:17.552Z,56.53
2018-06-04T21:50:45.226Z,29.90
2018-06-04T21:53:13.773Z,22.73
2018-06-04T21:55:42.744Z,16.80
2018-06-04T21:58:10.646Z,16.30
2018-06-04T22:00:38.529Z,15.30
2018-06-04T22:03:06.486Z,14.27
2018-06-04T22:05:34.528Z,13.83
2018-06-04T22:08:02.264Z,13.03
2018-06-04T22:23:30.376Z,14.43
2018-06-04T22:25:58.245Z,13.97
2018-06-04T22:28:26.398Z,14.43
2018-06-04T22:30:54.289Z,16.37
2018-06-04T22:33:22.144Z,14.53
2018-06-04T22:35:50.109Z,15.23
2018-06-04T22:38:18.003Z,13.90
2018-06-04T22:40:45.812Z,13.93
2018-06-04T22:43:14.250Z,16.10
2018-06-04T22:45:42.105Z,15.17
2018-06-04T22:48:09.960Z,14.47
2018-06-04T22:50:37.860Z,13.73
2018-06-04T22:53:05.788Z,15.30
2018-06-04T22:55:33.595Z,15.30
2018-06-04T22:58:01.489Z,17.80
2018-06-04T23:00:32.397Z,18.50
2018-06-04T23:03:00.222Z,15.17
2018-06-04T23:05:28.111Z,15.67
2018-06-04T23:07:56.094Z,15.13
2018-06-04T23:10:23.852Z,14.87
2018-06-04T23:12:51.700Z,15.03
2018-06-04T23:15:19.581Z,15.83
2018-06-04T23:17:47.488Z,16.17
2018-06-04T23:20:15.304Z,16.27
2018-06-04T23:22:43.075Z,16.53
2018-06-04T23:25:11.696Z,16.20
2018-06-04T23:27:41.358Z,17.67
2018-06-04T23:30:09.724Z,15.53
2018-06-04T23:32:37.632Z,15.60
2018-06-04T23:35:05.541Z,16.53
2018-06-04T23:37:34.118Z,16.77
2018-06-04T23:40:01.772Z,16.93
2018-06-04T23:42:29.616Z,18.20
2018-06-04T23:44:57.380Z,17.57
2018-06-04T23:47:25.844Z,16.23
2018-06-04T23:49:53.848Z,18.20
2018-06-04T23:52:21.536Z,17.80
2018-06-04T23:54:49.272Z,19.50
2018-06-04T23:57:17.151Z,17.37
2018-06-04T23:59:45.004Z,18.17
